Time;durP1;ratioP1;P1;durP2;ratioP2;P2;SDS_P1;SDS_P2;PMS_P1;PMS_P2;Temp;Humidity;BMP_temperature;BMP_pressure;BME280_temperature;BME280_humidity;BME280_pressure;Samples;Min_cycle;Max_cycle;Signal;HPM_P1;HPM_P2
2023/05/29 00:00:46;;;;;;;1.87;0.80;;;;;;;-145.06;100.00;60892.56;6004594;23;20008;-90
2023/05/29 00:03:25;;;;;;;0.98;0.68;;;;;;;-145.06;100.00;60892.56;6006135;23;20235;-90
2023/05/29 00:06:05;;;;;;;0.57;0.50;;;;;;;-145.06;100.00;60892.56;6007101;23;20324;-90
2023/05/29 00:08:45;;;;;;;1.20;0.63;;;;;;;-145.06;100.00;60892.56;6005854;22;20170;-91
2023/05/29 00:11:25;;;;;;;1.40;0.60;;;;;;;-145.06;100.00;60892.56;6004537;23;20008;-90
2023/05/29 00:14:04;;;;;;;1.00;0.60;;;;;;;-145.06;100.00;60892.56;6006305;23;20332;-90
2023/05/29 00:16:43;;;;;;;0.90;0.70;;;;;;;-145.06;100.00;60892.56;6006174;23;20008;-89
2023/05/29 00:19:24;;;;;;;1.17;0.70;;;;;;;-145.06;100.00;60892.56;6004526;23;20087;-90
2023/05/29 00:22:04;;;;;;;0.50;0.50;;;;;;;17.28;100.00;60892.56;6004418;23;20012;-90
2023/05/29 00:24:44;;;;;;;1.67;0.80;;;;;;;-145.06;100.00;60892.56;6005805;23;20004;-89
2023/05/29 00:27:22;;;;;;;0.83;0.60;;;;;;;-145.06;100.00;60892.56;6006877;23;20441;-90
2023/05/29 00:30:03;;;;;;;1.03;0.67;;;;;;;-145.06;100.00;60892.56;6006106;23;20235;-90
2023/05/29 00:32:42;;;;;;;1.10;0.60;;;;;;;-145.06;100.00;60892.56;6006729;23;20259;-90
2023/05/29 00:35:21;;;;;;;1.13;0.52;;;;;;;-145.06;100.00;60892.56;6006496;23;20000;-90
2023/05/29 00:38:00;;;;;;;1.38;0.40;;;;;;;-145.06;100.00;60892.56;6006394;23;20008;-89
2023/05/29 00:40:42;;;;;;;1.10;0.60;;;;;;;-145.06;100.00;60892.56;6004906;23;20051;-90
2023/05/29 00:43:21;;;;;;;0.95;0.60;;;;;;;-145.06;100.00;60892.56;6006145;23;20004;-89
2023/05/29 00:46:00;;;;;;;0.77;0.50;;;;;;;-145.06;100.00;60892.56;6006132;23;20000;-89
2023/05/29 00:48:41;;;;;;;1.70;0.80;;;;;;;-145.06;100.00;60892.56;6038508;22;20008;-90
2023/05/29 00:51:20;;;;;;;0.75;0.60;;;;;;;-145.06;100.00;60892.56;6004689;23;20231;-90
2023/05/29 00:53:59;;;;;;;0.88;0.57;;;;;;;-145.06;100.00;60892.56;6005796;23;20011;-90
2023/05/29 00:56:43;;;;;;;1.10;0.52;;;;;;;-145.06;100.00;60892.56;6006273;23;20000;-90
2023/05/29 00:59:23;;;;;;;0.40;0.40;;;;;;;-145.06;100.00;60892.56;6004721;23;20004;-91
2023/05/29 01:02:02;;;;;;;0.90;0.70;;;;;;;-145.06;100.00;60892.56;6027202;23;20012;-90
2023/05/29 01:04:44;;;;;;;0.80;0.60;;;;;;;16.71;100.00;60892.56;6006279;23;20032;-89
2023/05/29 01:07:23;;;;;;;0.75;0.50;;;;;;;-145.06;100.00;60892.56;6006357;23;20004;-90
2023/05/29 01:10:03;;;;;;;0.67;0.50;;;;;;;-145.06;100.00;60892.56;6004795;23;20012;-90
2023/05/29 01:13:06;;;;;;;0.80;0.57;;;;;;;16.60;100.00;60892.56;6004998;23;20008;-90
2023/05/29 01:16:11;;;;;;;0.80;0.43;;;;;;;-145.06;100.00;60892.56;6031187;22;20000;-92
2023/05/29 01:18:57;;;;;;;1.10;0.60;;;;;;;-145.06;100.00;60892.56;6027374;22;20012;-90
2023/05/29 01:21:46;;;;;;;1.00;0.50;;;;;;;-145.06;100.00;60892.56;6005053;23;20355;-90
2023/05/29 01:24:50;;;;;;;0.82;0.57;;;;;;;-145.06;100.00;60892.56;6004274;23;20442;-91
2023/05/29 01:27:30;;;;;;;1.40;0.70;;;;;;;-145.06;100.00;60892.56;6005294;23;20000;-90
2023/05/29 01:30:11;;;;;;;1.08;0.60;;;;;;;-145.06;100.00;60892.56;6004503;23;20004;-89
2023/05/29 01:32:51;;;;;;;0.82;0.50;;;;;;;-145.06;100.00;60892.56;6005993;23;20008;-90
2023/05/29 01:35:30;;;;;;;0.90;0.55;;;;;;;-145.06;100.00;60892.56;6005802;23;20031;-91
2023/05/29 01:38:08;;;;;;;0.70;0.60;;;;;;;-145.06;100.00;60892.56;6005438;23;20004;-88
2023/05/29 01:40:48;;;;;;;0.73;0.65;;;;;;;-145.06;100.00;60892.56;6004112;23;20231;-90
2023/05/29 01:43:28;;;;;;;0.82;0.57;;;;;;;-145.06;100.00;60892.56;6004988;23;20008;-90
2023/05/29 01:46:07;;;;;;;1.75;0.65;;;;;;;-145.06;100.00;60892.56;6005571;23;20008;-91
2023/05/29 01:48:47;;;;;;;1.30;0.68;;;;;;;-145.06;100.00;60892.56;6005198;22;20008;-90
2023/05/29 01:51:26;;;;;;;1.67;0.73;;;;;;;-145.06;100.00;60892.56;6004544;23;20012;-91
2023/05/29 01:54:05;;;;;;;1.10;0.60;;;;;;;-145.06;100.00;60892.56;6003657;23;20035;-90
2023/05/29 01:56:44;;;;;;;0.82;0.60;;;;;;;-145.06;100.00;60892.56;6005611;23;20540;-90
2023/05/29 01:59:24;;;;;;;1.08;0.68;;;;;;;-145.06;100.00;60892.56;6004529;23;20008;-90
2023/05/29 02:02:08;;;;;;;0.65;0.47;;;;;;;15.77;100.00;60892.56;6005557;23;20027;-89
2023/05/29 02:04:47;;;;;;;0.52;0.40;;;;;;;-145.06;100.00;60892.56;6006197;23;20315;-90
2023/05/29 02:07:26;;;;;;;3.40;0.88;;;;;;;15.88;100.00;60892.56;6038093;23;20008;-89
2023/05/29 02:10:05;;;;;;;1.52;0.75;;;;;;;15.72;100.00;60892.56;6003856;23;20004;-91
2023/05/29 02:12:45;;;;;;;0.50;0.50;;;;;;;21.08;100.00;60892.56;6005255;23;20031;-89
2023/05/29 02:15:24;;;;;;;0.67;0.43;;;;;;;-145.06;100.00;60892.56;6005309;23;20423;-90
2023/05/29 02:18:03;;;;;;;0.67;0.43;;;;;;;-145.06;100.00;60892.56;6005343;23;20247;-91
2023/05/29 02:20:41;;;;;;;0.53;0.50;;;;;;;21.08;100.00;60892.56;6004218;23;20339;-89
2023/05/29 02:23:21;;;;;;;0.90;0.70;;;;;;;-145.06;100.00;60892.56;6003408;23;20004;-90
2023/05/29 02:26:00;;;;;;;0.70;0.60;;;;;;;-145.06;100.00;60892.56;6005154;23;20012;-90
2023/05/29 02:28:39;;;;;;;1.20;0.77;;;;;;;-145.06;100.00;60892.56;6005159;22;20027;-90
2023/05/29 02:31:18;;;;;;;1.03;0.73;;;;;;;15.27;100.00;60892.56;6004000;23;20079;-90
2023/05/29 02:33:57;;;;;;;2.90;0.55;;;;;;;-145.06;100.00;60892.56;6037610;23;20296;-90
2023/05/29 02:36:37;;;;;;;0.65;0.50;;;;;;;-145.06;100.00;60892.56;6005679;23;20487;-88
2023/05/29 02:39:16;;;;;;;1.33;0.85;;;;;;;-145.06;100.00;60892.56;6004232;23;20004;-90
2023/05/29 02:41:55;;;;;;;0.90;0.70;;;;;;;-145.06;100.00;60892.56;6005041;23;20012;-88
2023/05/29 02:44:34;;;;;;;1.07;0.70;;;;;;;-145.06;100.00;60892.56;6005248;23;20012;-89
2023/05/29 02:47:12;;;;;;;1.03;0.73;;;;;;;-145.06;100.00;60892.56;6005770;23;20004;-89
2023/05/29 02:49:51;;;;;;;1.00;0.65;;;;;;;-145.06;100.00;60892.56;6004199;23;20234;-90
2023/05/29 02:52:32;;;;;;;2.23;0.70;;;;;;;-145.06;100.00;60892.56;6002772;23;20110;-90
2023/05/29 02:55:11;;;;;;;0.75;0.60;;;;;;;-145.06;100.00;60892.56;6004495;23;20008;-90
2023/05/29 02:57:52;;;;;;;2.13;0.90;;;;;;;-145.06;100.00;60892.56;6004386;23;20320;-89
2023/05/29 03:00:31;;;;;;;1.73;0.75;;;;;;;-145.06;100.00;60892.56;6006699;23;20004;-89
2023/05/29 03:03:10;;;;;;;1.05;0.70;;;;;;;-145.06;100.00;60892.56;6039203;23;20008;-90
2023/05/29 03:05:49;;;;;;;1.02;0.50;;;;;;;-145.06;100.00;60892.56;6006467;23;20004;-90
2023/05/29 03:08:28;;;;;;;1.00;0.60;;;;;;;-145.06;100.00;60892.56;6007032;22;20004;-90
2023/05/29 03:11:10;;;;;;;1.43;0.80;;;;;;;-145.06;100.00;60892.56;6005258;23;20231;-90
2023/05/29 03:13:49;;;;;;;0.90;0.60;;;;;;;-145.06;100.00;60892.56;6006225;23;20004;-90
2023/05/29 03:16:29;;;;;;;1.50;0.87;;;;;;;-145.06;100.00;60892.56;6006414;23;20008;-90
2023/05/29 03:19:08;;;;;;;1.65;0.90;;;;;;;-145.06;100.00;60892.56;6004293;23;20532;-90
2023/05/29 03:21:47;;;;;;;1.37;0.83;;;;;;;-145.06;100.00;60892.56;6004568;23;20004;-89
2023/05/29 03:24:27;;;;;;;1.50;0.80;;;;;;;14.50;100.00;60892.56;6004156;23;20012;-90
2023/05/29 03:27:06;;;;;;;;;;;;;;;-145.06;100.00;60892.56;6006308;23;20083;-92
2023/05/29 03:29:45;;;;;;;0.88;0.63;;;;;;;-145.06;100.00;60892.56;6004283;23;19939;-90
2023/05/29 03:32:24;;;;;;;0.82;0.70;;;;;;;-145.06;100.00;60892.56;6003639;23;20008;-90
2023/05/29 03:35:03;;;;;;;0.90;0.60;;;;;;;-145.06;100.00;60892.56;6004425;23;20027;-89
2023/05/29 03:37:42;;;;;;;1.23;0.70;;;;;;;-145.06;100.00;60892.56;6005184;23;20320;-91
2023/05/29 03:40:21;;;;;;;1.00;0.70;;;;;;;-145.06;100.00;60892.56;6002992;23;20011;-90
2023/05/29 03:43:00;;;;;;;0.70;0.50;;;;;;;-145.06;100.00;60892.56;6028445;23;20004;-90
2023/05/29 03:45:39;;;;;;;0.57;0.47;;;;;;;-145.06;100.00;60892.56;6005468;23;20000;-90
2023/05/29 03:48:18;;;;;;;1.70;0.95;;;;;;;-145.06;100.00;60892.56;6004839;23;20008;-90
2023/05/29 03:50:57;;;;;;;0.88;0.52;;;;;;;-145.06;100.00;60892.56;6003459;23;20012;-89
2023/05/29 03:53:36;;;;;;;1.00;0.60;;;;;;;-145.06;100.00;60892.56;6004396;23;20296;-90
2023/05/29 03:56:15;;;;;;;2.08;0.90;;;;;;;-145.06;100.00;60892.56;6004387;23;20239;-90
2023/05/29 03:58:54;;;;;;;0.80;0.60;;;;;;;-145.06;100.00;60892.56;6003421;22;20012;-90
2023/05/29 04:01:34;;;;;;;0.82;0.60;;;;;;;-145.06;100.00;60892.56;6002088;23;20012;-91
2023/05/29 04:04:13;;;;;;;0.73;0.60;;;;;;;-145.06;100.00;60892.56;6002552;23;20004;-90
2023/05/29 04:06:52;;;;;;;2.00;0.80;;;;;;;-145.06;100.00;60892.56;6004473;23;20004;-90
2023/05/29 04:09:31;;;;;;;1.08;0.50;;;;;;;14.07;100.00;60892.56;6001118;23;20316;-90
2023/05/29 04:12:10;;;;;;;1.37;0.80;;;;;;;-145.06;100.00;60892.56;6004022;23;20008;-90
2023/05/29 04:14:49;;;;;;;1.30;0.60;;;;;;;-145.06;100.00;60892.56;6003979;23;20008;-90
2023/05/29 04:17:28;;;;;;;0.93;0.50;;;;;;;-145.06;100.00;60892.56;6003232;23;20008;-91
2023/05/29 04:20:08;;;;;;;0.77;0.50;;;;;;;-145.06;100.00;60892.56;6000518;23;20451;-89
2023/05/29 04:22:47;;;;;;;0.90;0.70;;;;;;;-145.06;100.00;60892.56;6002765;23;20000;-89
2023/05/29 04:25:26;;;;;;;1.67;0.90;;;;;;;-145.06;100.00;60892.56;6003246;23;20312;-90
2023/05/29 04:28:05;;;;;;;0.77;0.55;;;;;;;-145.06;100.00;60892.56;6003849;23;20004;-90
2023/05/29 04:30:44;;;;;;;2.57;0.70;;;;;;;-145.06;100.00;60892.56;6000503;23;20371;-90
2023/05/29 04:33:23;;;;;;;1.30;0.67;;;;;;;-145.06;100.00;60892.56;6001340;23;20235;-90
2023/05/29 04:36:03;;;;;;;1.20;0.63;;;;;;;-145.06;100.00;60892.56;6001564;23;20004;-90
2023/05/29 04:38:44;;;;;;;;;;;;;;;-145.06;100.00;60892.56;6007821;22;19992;-91
2023/05/29 04:41:29;;;;;;;0.93;0.50;;;;;;;-145.06;100.00;60892.56;6029304;22;20021;-90
2023/05/29 04:44:11;;;;;;;0.90;0.60;;;;;;;-145.06;100.00;60892.56;6015986;23;20111;-90
2023/05/29 04:46:51;;;;;;;0.73;0.50;;;;;;;-145.06;100.00;60892.56;6001402;23;20007;-89
2023/05/29 04:49:31;;;;;;;0.98;0.57;;;;;;;-145.06;100.00;60892.56;6002434;23;20008;-91
2023/05/29 04:52:11;;;;;;;1.13;0.70;;;;;;;-145.06;100.00;60892.56;6000051;23;20004;-91
2023/05/29 04:54:52;;;;;;;0.80;0.57;;;;;;;-145.06;100.00;60892.56;6001336;23;20443;-89
2023/05/29 04:57:34;;;;;;;2.33;0.70;;;;;;;-145.06;100.00;60892.56;6000650;23;20004;-90
2023/05/29 05:00:15;;;;;;;1.75;0.70;;;;;;;-145.06;100.00;60892.56;5999441;23;20045;-90
2023/05/29 05:02:55;;;;;;;2.03;0.90;;;;;;;-145.06;100.00;60892.56;6000929;23;20455;-89
2023/05/29 05:05:34;;;;;;;1.95;0.80;;;;;;;-145.06;100.00;60892.56;6033593;23;20439;-90
2023/05/29 05:08:16;;;;;;;1.27;0.77;;;;;;;-145.06;100.00;60892.56;6002380;23;20031;-93
2023/05/29 05:10:55;;;;;;;1.77;0.73;;;;;;;-145.06;100.00;60892.56;5999726;23;20483;-92
2023/05/29 05:13:34;;;;;;;2.15;0.52;;;;;;;-145.06;100.00;60892.56;5999757;23;20356;-90
2023/05/29 05:16:13;;;;;;;0.73;0.60;;;;;;;-145.06;100.00;60892.56;6002677;23;20043;-91
2023/05/29 05:18:52;;;;;;;0.60;0.50;;;;;;;-145.06;100.00;60892.56;5998371;22;20032;-91
2023/05/29 05:21:32;;;;;;;1.88;0.70;;;;;;;-145.06;100.00;60892.56;5999546;23;20008;-92
2023/05/29 05:24:11;;;;;;;;;;;;;;;-145.06;100.00;60892.56;6002060;23;20091;-91
2023/05/29 05:26:50;;;;;;;0.73;0.50;;;;;;;-145.06;100.00;60892.56;6033547;23;19907;-89
2023/05/29 05:29:29;;;;;;;0.90;0.50;;;;;;;-145.06;100.00;60892.56;5998934;23;20003;-91
2023/05/29 05:32:09;;;;;;;2.53;0.88;;;;;;;-145.06;100.00;60892.56;6002603;23;20016;-90
2023/05/29 05:34:47;;;;;;;1.85;0.70;;;;;;;-145.06;100.00;60892.56;5999874;23;20446;-91
2023/05/29 05:37:27;;;;;;;1.58;0.52;;;;;;;-145.06;100.00;60892.56;5999917;23;20371;-90
2023/05/29 05:40:06;;;;;;;1.20;0.60;;;;;;;-145.06;100.00;60892.56;6001715;23;20442;-92
2023/05/29 05:42:45;;;;;;;2.05;0.80;;;;;;;-145.06;100.00;60892.56;6000995;23;20235;-92
2023/05/29 05:45:24;;;;;;;2.00;0.57;;;;;;;-145.06;100.00;60892.56;6000203;23;20016;-91
2023/05/29 05:48:03;;;;;;;1.23;0.63;;;;;;;-145.06;100.00;60892.56;6001111;23;20310;-88
2023/05/29 05:50:42;;;;;;;1.90;0.90;;;;;;;-145.06;100.00;60892.56;6002043;23;20231;-90
2023/05/29 05:53:21;;;;;;;1.17;0.70;;;;;;;-145.06;100.00;60892.56;6001880;23;20000;-91
2023/05/29 05:56:00;;;;;;;1.80;0.80;;;;;;;-145.06;100.00;60892.56;6000156;23;20297;-90
2023/05/29 05:58:41;;;;;;;2.03;0.73;;;;;;;-145.06;100.00;60892.56;6000495;22;21478;-90
2023/05/29 06:01:20;;;;;;;3.45;0.90;;;;;;;-145.06;100.00;60892.56;6000518;23;20016;-90
2023/05/29 06:03:59;;;;;;;2.10;0.60;;;;;;;-145.06;100.00;60892.56;6001890;23;20004;-89
2023/05/29 06:06:38;;;;;;;1.30;0.73;;;;;;;-145.06;100.00;60892.56;6000522;23;20004;-91
2023/05/29 06:09:17;;;;;;;3.00;1.23;;;;;;;-145.06;100.00;60892.56;6023909;22;20447;-90
2023/05/29 06:11:56;;;;;;;0.93;0.70;;;;;;;-145.06;100.00;60892.56;6001311;23;20324;-90
2023/05/29 06:14:35;;;;;;;2.93;0.87;;;;;;;-145.06;100.00;60892.56;6000623;23;20277;-89
2023/05/29 06:17:15;;;;;;;2.45;0.80;;;;;;;-145.06;100.00;60892.56;5998301;23;20272;-90
2023/05/29 06:19:54;;;;;;;1.98;0.60;;;;;;;-145.06;100.00;60892.56;6000105;23;20012;-90
2023/05/29 06:22:33;;;;;;;1.23;0.60;;;;;;;-145.06;100.00;60892.56;6002333;23;20011;-90
2023/05/29 06:25:12;;;;;;;1.30;0.60;;;;;;;-145.06;100.00;60892.56;5999415;23;20008;-90
2023/05/29 06:27:51;;;;;;;2.30;0.90;;;;;;;-145.06;100.00;60892.56;6002548;23;20004;-91
2023/05/29 06:30:30;;;;;;;2.83;0.80;;;;;;;-145.06;100.00;60892.56;6002094;23;20008;-90
2023/05/29 06:33:09;;;;;;;2.58;0.70;;;;;;;-145.06;100.00;60892.56;6005702;23;20079;-88
2023/05/29 06:36:01;;;;;;;1.85;0.70;;;;;;;-145.06;100.00;60892.56;6007707;23;20007;-91
2023/05/29 06:38:47;;;;;;;2.35;0.77;;;;;;;-145.06;100.00;60892.56;6008247;22;20004;-91
2023/05/29 06:41:26;;;;;;;3.40;0.93;;;;;;;-145.06;100.00;60892.56;6006206;23;20008;-91
2023/05/29 06:44:06;;;;;;;3.00;0.65;;;;;;;14.05;100.00;60892.56;6007095;23;20090;-90
2023/05/29 06:46:44;;;;;;;1.10;0.53;;;;;;;-145.06;100.00;60892.56;6008259;23;20027;-90
2023/05/29 06:49:23;;;;;;;1.47;0.50;;;;;;;-145.06;100.00;60892.56;6006981;23;20008;-90
2023/05/29 06:52:02;;;;;;;1.20;0.63;;;;;;;-145.06;100.00;60892.56;6006381;23;20004;-91
2023/05/29 06:54:42;;;;;;;2.77;1.00;;;;;;;-145.06;100.00;60892.56;6007283;23;20308;-91
2023/05/29 06:57:23;;;;;;;3.58;0.85;;;;;;;-145.06;100.00;60892.56;6006504;23;20008;-91
2023/05/29 07:00:05;;;;;;;2.30;0.85;;;;;;;-145.06;100.00;60892.56;6005671;23;20028;-90
2023/05/29 07:02:47;;;;;;;2.08;0.60;;;;;;;-145.06;100.00;60892.56;6007582;23;20004;-91
2023/05/29 07:05:27;;;;;;;2.05;0.60;;;;;;;-145.06;100.00;60892.56;6006515;23;20007;-90
2023/05/29 07:08:07;;;;;;;1.55;0.68;;;;;;;-145.06;100.00;60892.56;6008642;23;20004;-92
2023/05/29 07:10:53;;;;;;;2.00;0.80;;;;;;;-145.06;100.00;60892.56;6006637;23;20324;-91
2023/05/29 07:13:32;;;;;;;3.65;0.85;;;;;;;-145.06;100.00;60892.56;6008772;23;20004;-90
2023/05/29 07:16:11;;;;;;;1.80;0.90;;;;;;;-145.06;100.00;60892.56;6006770;23;20004;-90
2023/05/29 07:18:53;;;;;;;1.40;0.68;;;;;;;-145.06;100.00;60892.56;6006451;22;20008;-91
2023/05/29 07:21:33;;;;;;;1.80;0.57;;;;;;;-145.06;100.00;60892.56;6005480;23;20012;-90
2023/05/29 07:24:12;;;;;;;3.28;1.08;;;;;;;-145.06;100.00;60892.56;6007515;23;20039;-91
2023/05/29 07:26:51;;;;;;;2.67;0.63;;;;;;;-145.06;100.00;60892.56;6005587;23;20435;-92
2023/05/29 07:29:30;;;;;;;2.45;0.90;;;;;;;-145.06;100.00;60892.56;6005026;23;20231;-91
2023/05/29 07:32:09;;;;;;;1.37;0.57;;;;;;;-145.06;100.00;60892.56;6004323;23;20004;-91
2023/05/29 07:34:51;;;;;;;2.60;0.75;;;;;;;-145.06;100.00;60892.56;6006049;23;20000;-91
2023/05/29 07:37:31;;;;;;;2.70;0.82;;;;;;;-145.06;100.00;60892.56;6006480;23;20008;-92
2023/05/29 07:40:10;;;;;;;1.58;0.73;;;;;;;-145.06;100.00;60892.56;6005109;23;20009;-90
2023/05/29 07:42:49;;;;;;;1.80;0.57;;;;;;;-145.06;100.00;60892.56;6006566;23;20079;-92
2023/05/29 07:45:28;;;;;;;2.65;1.05;;;;;;;-145.06;100.00;60892.56;6007278;23;20031;-91
2023/05/29 07:48:07;;;;;;;2.53;0.88;;;;;;;-145.06;100.00;60892.56;6008226;23;20087;-91
2023/05/29 07:50:46;;;;;;;4.65;1.00;;;;;;;-145.06;100.00;60892.56;6008054;23;20363;-91
2023/05/29 07:53:25;;;;;;;3.05;1.17;;;;;;;15.55;100.00;60892.56;6008566;23;20320;-91
2023/05/29 07:56:05;;;;;;;2.43;0.77;;;;;;;-145.06;100.00;60892.56;6010679;23;20012;-92
2023/05/29 07:58:44;;;;;;;1.48;0.77;;;;;;;-145.06;100.00;60892.56;6022565;22;20019;-93
2023/05/29 08:03:53;;;;;;;1.38;0.82;;;;;;;-145.06;100.00;60892.56;6000739;22;20474;-94
2023/05/29 08:06:32;;;;;;;2.63;0.80;;;;;;;21.08;100.00;60892.56;5980528;23;20004;-90
2023/05/29 08:09:11;;;;;;;2.10;0.80;;;;;;;-145.06;100.00;60892.56;5979033;23;20004;-91
2023/05/29 08:11:50;;;;;;;1.35;0.63;;;;;;;-145.06;100.00;60892.56;5979953;23;20009;-92
2023/05/29 08:14:30;;;;;;;1.08;0.60;;;;;;;-145.06;100.00;60892.56;5980557;23;20087;-92
2023/05/29 08:17:09;;;;;;;2.55;1.02;;;;;;;-145.06;100.00;60892.56;5981041;23;20004;-90
2023/05/29 08:19:48;;;;;;;2.25;0.90;;;;;;;-145.06;100.00;60892.56;5981041;23;20616;-90
2023/05/29 08:22:31;;;;;;;4.20;1.10;;;;;;;-145.06;100.00;60892.56;5981702;23;20083;-92
2023/05/29 08:25:28;;;;;;;1.58;0.90;;;;;;;-145.06;100.00;60892.56;5981205;23;20016;-92
2023/05/29 08:28:07;;;;;;;2.30;0.95;;;;;;;16.90;100.00;60892.56;5981975;23;20001;-91
2023/05/29 08:30:52;;;;;;;3.63;1.10;;;;;;;-145.06;100.00;60892.56;5962064;23;20094;-91
2023/05/29 08:33:32;;;;;;;1.45;0.70;;;;;;;17.11;100.00;60892.56;5953083;23;20085;-90
2023/05/29 08:36:11;;;;;;;2.92;0.90;;;;;;;-145.06;100.00;60892.56;6002397;23;20000;-89
2023/05/29 08:38:50;;;;;;;1.93;0.70;;;;;;;-145.06;100.00;60892.56;6000163;23;20313;-90
2023/05/29 08:41:46;;;;;;;2.33;0.97;;;;;;;-145.06;100.00;60892.56;5999621;23;20235;-89
2023/05/29 08:44:42;;;;;;;1.38;0.57;;;;;;;-145.06;100.00;60892.56;6001233;23;20016;-91
2023/05/29 08:47:27;;;;;;;4.07;0.95;;;;;;;-145.06;100.00;60892.56;6001681;23;20004;-90
2023/05/29 08:50:07;;;;;;;1.50;0.57;;;;;;;-145.06;100.00;60892.56;6004547;23;20424;-90
2023/05/29 08:53:07;;;;;;;2.92;0.93;;;;;;;-145.06;100.00;60892.56;6002338;23;20004;-90
2023/05/29 08:55:48;;;;;;;3.17;1.23;;;;;;;-145.06;100.00;60892.56;5995269;23;20030;-88
2023/05/29 08:58:26;;;;;;;2.35;0.60;;;;;;;187.52;100.00;60892.56;5992998;23;20032;-90
2023/05/29 09:01:06;;;;;;;2.15;1.13;;;;;;;-145.06;100.00;60892.56;6001929;23;20044;-89
2023/05/29 09:03:45;;;;;;;2.60;0.80;;;;;;;-145.06;100.00;60892.56;5991502;23;20012;-90
2023/05/29 09:06:25;;;;;;;;;;;;;;;-145.06;100.00;60892.56;5994395;23;20012;-93
2023/05/29 09:09:05;;;;;;;2.65;0.90;;;;;;;-145.06;100.00;60892.56;5990353;23;19904;-91
2023/05/29 09:11:44;;;;;;;2.22;1.00;;;;;;;-145.06;100.00;60892.56;6012079;23;20008;-88
2023/05/29 09:14:35;;;;;;;1.48;0.63;;;;;;;-145.06;100.00;60892.56;5991873;23;20009;-89
2023/05/29 09:17:15;;;;;;;2.35;0.73;;;;;;;-145.06;100.00;60892.56;5991361;23;20087;-89
2023/05/29 09:19:54;;;;;;;2.78;0.80;;;;;;;-145.06;100.00;60892.56;5990921;23;20013;-89
2023/05/29 09:22:33;;;;;;;4.47;1.08;;;;;;;18.38;100.00;60892.56;5991301;23;20008;-91
2023/05/29 09:25:13;;;;;;;2.67;0.80;;;;;;;-145.06;100.00;60892.56;5988942;23;20588;-90
2023/05/29 09:27:54;;;;;;;1.80;0.90;;;;;;;-145.06;100.00;60892.56;5987379;23;20000;-90
2023/05/29 09:30:38;;;;;;;2.88;0.93;;;;;;;-145.06;100.00;60892.56;5988352;23;20016;-90
2023/05/29 09:33:17;;;;;;;1.20;0.70;;;;;;;-145.06;100.00;60892.56;5989501;23;20008;-90
2023/05/29 09:35:56;;;;;;;2.40;0.68;;;;;;;-145.06;100.00;60892.56;5991118;23;20005;-91
2023/05/29 09:38:36;;;;;;;1.48;0.70;;;;;;;-145.06;100.00;60892.56;5989667;23;20009;-90
2023/05/29 09:41:25;;;;;;;2.35;0.80;;;;;;;-145.06;100.00;60892.56;5990131;23;20013;-91
2023/05/29 09:44:05;;;;;;;2.10;0.80;;;;;;;-145.06;100.00;60892.56;5988584;23;20004;-92
2023/05/29 09:46:46;;;;;;;1.67;0.70;;;;;;;-145.06;100.00;60892.56;5986399;23;20004;-90
2023/05/29 09:49:25;;;;;;;2.65;1.02;;;;;;;-145.06;100.00;60892.56;5983937;23;20005;-91
2023/05/29 09:52:07;;;;;;;3.20;0.70;;;;;;;-145.06;100.00;60892.56;5986186;23;20008;-91
2023/05/29 09:54:46;;;;;;;2.92;1.13;;;;;;;-145.06;100.00;60892.56;5991296;23;20001;-91
2023/05/29 09:57:27;;;;;;;1.93;0.80;;;;;;;-145.06;100.00;60892.56;5990089;23;20013;-90
2023/05/29 10:00:12;;;;;;;0.85;0.55;;;;;;;-145.06;100.00;60892.56;5988439;23;20240;-91
2023/05/29 10:02:51;;;;;;;1.83;0.73;;;;;;;-145.06;100.00;60892.56;5991835;23;20009;-91
2023/05/29 10:05:31;;;;;;;3.15;0.80;;;;;;;19.39;100.00;60892.56;5997661;23;20087;-92
2023/05/29 10:08:17;;;;;;;2.72;1.10;;;;;;;-145.06;100.00;60892.56;5997757;23;20004;-92
2023/05/29 10:11:01;;;;;;;1.42;0.70;;;;;;;-145.06;100.00;60892.56;5997633;23;20004;-92
2023/05/29 10:13:48;;;;;;;1.27;0.60;;;;;;;-145.06;100.00;60892.56;5997962;23;20012;-92
2023/05/29 10:16:28;;;;;;;2.17;0.70;;;;;;;-145.06;100.00;60892.56;5998247;23;20036;-91
2023/05/29 10:19:13;;;;;;;2.38;0.80;;;;;;;19.61;100.00;60892.56;5996206;23;20432;-92
2023/05/29 10:21:53;;;;;;;3.58;0.88;;;;;;;19.75;100.00;60892.56;5997209;23;20008;-92
2023/05/29 10:24:35;;;;;;;1.02;0.60;;;;;;;-145.06;100.00;60892.56;5998295;23;20012;-92
2023/05/29 10:27:15;;;;;;;1.45;0.70;;;;;;;-145.06;100.00;60892.56;5997461;23;20008;-91
2023/05/29 10:29:58;;;;;;;3.60;0.75;;;;;;;-145.06;100.00;60892.56;5996327;23;20432;-91
2023/05/29 10:33:07;;;;;;;4.13;1.00;;;;;;;-145.06;100.00;60892.56;5976778;23;20013;-92
2023/05/29 10:35:53;;;;;;;2.65;0.93;;;;;;;-145.06;100.00;60892.56;5976930;23;20008;-92
2023/05/29 10:38:32;;;;;;;2.25;1.13;;;;;;;-145.06;100.00;60892.56;5976806;23;20431;-91
2023/05/29 10:41:25;;;;;;;1.40;0.63;;;;;;;-145.06;100.00;60892.56;5977486;23;20009;-93
2023/05/29 10:44:30;;;;;;;2.30;0.75;;;;;;;-145.06;100.00;60892.56;5977320;23;20506;-94
2023/05/29 10:47:12;;;;;;;1.95;0.73;;;;;;;-145.06;100.00;60892.56;5977039;23;20009;-92
2023/05/29 10:49:54;;;;;;;2.63;0.88;;;;;;;-145.06;100.00;60892.56;5976776;23;20000;-92
2023/05/29 10:52:34;;;;;;;1.92;0.82;;;;;;;-145.06;100.00;60892.56;5977592;23;20008;-92
2023/05/29 10:55:16;;;;;;;1.98;0.73;;;;;;;-145.06;100.00;60892.56;5976660;23;20008;-92
2023/05/29 10:57:55;;;;;;;1.73;0.80;;;;;;;-145.06;100.00;60892.56;5977299;23;20000;-93
2023/05/29 11:00:44;;;;;;;2.33;0.73;;;;;;;-145.06;100.00;60892.56;5976524;23;20005;-92
2023/05/29 11:03:31;;;;;;;2.35;0.77;;;;;;;-145.06;100.00;60892.56;5976923;23;20333;-92
2023/05/29 11:06:19;;;;;;;2.65;0.90;;;;;;;-145.06;100.00;60892.56;5977825;23;20008;-93
2023/05/29 11:09:07;;;;;;;1.58;0.75;;;;;;;-145.06;100.00;60892.56;5977965;23;19997;-93
2023/05/29 11:12:09;;;;;;;2.15;0.90;;;;;;;-145.06;100.00;60892.56;5978559;23;20063;-93
2023/05/29 11:14:56;;;;;;;3.60;1.02;;;;;;;-145.06;100.00;60892.56;5977499;23;20506;-94
2023/05/29 11:17:43;;;;;;;2.55;1.02;;;;;;;21.06;100.00;60892.56;5977799;23;20391;-93
2023/05/29 11:20:28;;;;;;;2.20;1.08;;;;;;;-145.06;100.00;60892.56;5977953;23;20000;-92
2023/05/29 11:23:08;;;;;;;2.38;0.80;;;;;;;-145.06;100.00;60892.56;5977823;23;20391;-91
2023/05/29 11:25:48;;;;;;;;;;;;;;;-145.06;100.00;60892.56;5977408;23;20040;-91
2023/05/29 11:28:27;;;;;;;1.88;0.80;;;;;;;-145.06;100.00;60892.56;5980312;22;19907;-92
2023/05/29 11:31:08;;;;;;;;;;;;;;;-145.06;100.00;60892.56;6013821;23;20005;-93
2023/05/29 11:33:50;;;;;;;2.97;0.80;;;;;;;-145.06;100.00;60892.56;6022277;22;19899;-92
2023/05/29 11:36:31;;;;;;;1.77;1.00;;;;;;;-145.06;100.00;60892.56;5996455;23;20013;-93
2023/05/29 11:39:10;;;;;;;2.00;1.00;;;;;;;-145.06;100.00;60892.56;5996663;23;20004;-92
2023/05/29 11:41:54;;;;;;;2.50;0.85;;;;;;;-145.06;100.00;60892.56;5999284;23;20008;-93
2023/05/29 11:44:33;;;;;;;2.42;0.77;;;;;;;-145.06;100.00;60892.56;5996544;23;20020;-91
2023/05/29 11:47:12;;;;;;;1.63;0.65;;;;;;;-145.06;100.00;60892.56;5997197;23;20013;-92
2023/05/29 11:49:51;;;;;;;3.58;0.85;;;;;;;-145.06;100.00;60892.56;5996284;23;20012;-91
2023/05/29 11:52:30;;;;;;;2.55;0.90;;;;;;;-145.06;100.00;60892.56;6018712;23;20005;-91
2023/05/29 11:55:09;;;;;;;1.52;0.65;;;;;;;-145.06;100.00;60892.56;5997735;23;20004;-91
2023/05/29 11:57:50;;;;;;;2.10;0.70;;;;;;;-145.06;100.00;60892.56;5996956;23;20091;-92
2023/05/29 12:00:37;;;;;;;1.15;0.50;;;;;;;-145.06;100.00;60892.56;5995433;23;20072;-91
2023/05/29 12:03:16;;;;;;;1.58;0.70;;;;;;;-145.06;100.00;60892.56;5995453;23;20495;-91
2023/05/29 12:05:55;;;;;;;1.95;0.90;;;;;;;-145.06;100.00;60892.56;5995396;23;20008;-91
2023/05/29 12:08:35;;;;;;;2.88;0.73;;;;;;;-145.06;100.00;60892.56;5994572;23;20000;-92
2023/05/29 12:11:14;;;;;;;1.13;0.70;;;;;;;-145.06;100.00;60892.56;5995333;23;20009;-92
2023/05/29 12:13:57;;;;;;;1.92;0.80;;;;;;;-145.06;100.00;60892.56;5996299;23;20004;-92
2023/05/29 12:16:36;;;;;;;1.80;0.77;;;;;;;-145.06;100.00;60892.56;5995276;23;20005;-91